createdAt,value
2023-04-14T00:00:40.820Z,99.90
2023-04-14T00:03:08.639Z,99.90
2023-04-14T00:05:35.841Z,99.90
2023-04-14T00:08:03.532Z,99.90
2023-04-14T00:10:31.171Z,99.90
2023-04-14T00:12:58.372Z,99.90
2023-04-14T00:15:25.429Z,99.90
2023-04-14T00:17:53.475Z,99.90
2023-04-14T00:20:20.550Z,99.90
2023-04-14T00:22:47.466Z,99.90
2023-04-14T00:25:14.406Z,99.90
2023-04-14T00:27:41.439Z,99.90
2023-04-14T00:30:09.878Z,99.90
2023-04-14T00:32:37.036Z,99.90
2023-04-14T00:35:04.392Z,99.90
2023-04-14T00:37:32.529Z,99.90
2023-04-14T00:40:00.185Z,99.90
2023-04-14T00:42:28.156Z,99.90
2023-04-14T00:44:55.185Z,99.90
2023-04-14T00:47:22.716Z,99.90
2023-04-14T00:49:50.213Z,99.90
2023-04-14T00:52:17.693Z,99.90
2023-04-14T00:54:44.902Z,99.90
2023-04-14T00:57:12.828Z,99.90
2023-04-14T00:59:40.684Z,99.90
2023-04-14T01:02:07.716Z,99.90
2023-04-14T01:04:51.974Z,99.90
2023-04-14T01:07:20.634Z,99.90
2023-04-14T01:09:47.585Z,99.90
2023-04-14T01:12:17.337Z,99.90
2023-04-14T01:14:50.655Z,99.90
2023-04-14T01:17:46.109Z,99.90
2023-04-14T01:20:34.663Z,99.90
2023-04-14T01:23:50.108Z,99.90
2023-04-14T01:26:29.117Z,99.90
2023-04-14T01:29:51.798Z,99.90
2023-04-14T01:32:23.367Z,99.90
2023-04-14T01:35:15.907Z,99.90
2023-04-14T01:37:48.001Z,99.90
2023-04-14T01:40:17.236Z,99.90
2023-04-14T01:42:47.745Z,99.90
2023-04-14T01:45:26.721Z,99.90
2023-04-14T01:47:53.717Z,99.90
2023-04-14T01:50:20.952Z,99.90
2023-04-14T01:52:48.048Z,99.90
2023-04-14T01:55:19.001Z,99.90
2023-04-14T01:57:50.446Z,99.90
2023-04-14T02:00:17.789Z,99.90
2023-04-14T02:02:45.855Z,99.90
2023-04-14T02:05:13.203Z,99.90
2023-04-14T02:07:41.231Z,99.90
2023-04-14T02:10:11.131Z,99.90
2023-04-14T02:12:40.204Z,99.90
2023-04-14T02:15:08.192Z,99.90
2023-04-14T02:17:35.176Z,99.90
2023-04-14T02:20:02.280Z,99.90
2023-04-14T02:22:29.307Z,99.90
2023-04-14T02:24:56.342Z,99.90
2023-04-14T02:27:38.709Z,99.90
2023-04-14T02:30:12.046Z,99.90
2023-04-14T02:32:41.683Z,99.90
2023-04-14T02:35:13.591Z,99.90
2023-04-14T02:37:43.273Z,99.90
2023-04-14T02:40:17.634Z,99.90
2023-04-14T02:42:48.635Z,99.90
2023-04-14T02:45:22.459Z,99.90
2023-04-14T02:47:54.348Z,99.90
2023-04-14T02:50:21.312Z,99.90
2023-04-14T02:52:48.433Z,99.90
2023-04-14T02:55:15.388Z,99.90
2023-04-14T02:57:42.533Z,99.90
2023-04-14T03:00:10.188Z,99.90
2023-04-14T03:02:37.200Z,99.90
2023-04-14T03:05:06.011Z,99.90
2023-04-14T03:07:32.965Z,99.90
2023-04-14T03:09:59.923Z,99.90
2023-04-14T03:12:26.889Z,99.90
2023-04-14T03:14:53.775Z,99.90
2023-04-14T03:17:20.819Z,99.90
2023-04-14T03:19:48.208Z,99.90
2023-04-14T03:22:16.349Z,99.90
2023-04-14T03:24:44.877Z,99.90
2023-04-14T03:27:18.084Z,99.90
2023-04-14T03:29:51.773Z,99.90
2023-04-14T03:32:19.658Z,99.90
2023-04-14T03:34:53.543Z,99.90
2023-04-14T03:37:24.414Z,99.90
2023-04-14T03:39:51.408Z,99.90
2023-04-14T03:42:20.036Z,99.90
2023-04-14T03:44:47.174Z,99.90
2023-04-14T03:47:14.211Z,99.90
2023-04-14T03:49:41.641Z,99.90
2023-04-14T03:52:10.735Z,99.90
2023-04-14T03:54:39.136Z,99.90
2023-04-14T03:57:06.532Z,99.90
2023-04-14T03:59:34.428Z,99.90
2023-04-14T04:02:01.467Z,99.90
2023-04-14T04:04:29.236Z,99.90
2023-04-14T04:06:56.240Z,99.90
2023-04-14T04:09:23.201Z,99.90
2023-04-14T04:11:50.174Z,99.90
2023-04-14T04:14:19.323Z,99.90
2023-04-14T04:16:47.899Z,99.90
2023-04-14T04:19:14.868Z,99.90
2023-04-14T04:21:42.297Z,99.90
2023-04-14T04:24:09.345Z,99.90
2023-04-14T04:26:36.708Z,99.90
2023-04-14T04:29:04.136Z,99.90
2023-04-14T04:31:31.606Z,99.90
2023-04-14T04:33:58.874Z,99.90
2023-04-14T04:36:30.391Z,99.90
2023-04-14T04:38:57.473Z,99.90
2023-04-14T04:41:29.466Z,99.90
2023-04-14T04:43:56.685Z,99.90
2023-04-14T04:47:05.564Z,99.90
2023-04-14T04:49:32.572Z,99.90
2023-04-14T04:51:59.533Z,99.90
2023-04-14T04:54:26.530Z,99.90
2023-04-14T04:56:53.553Z,99.90
2023-04-14T04:59:20.568Z,99.90
2023-04-14T05:01:47.718Z,99.90
2023-04-14T05:04:14.888Z,99.90
2023-04-14T05:06:41.819Z,99.90
2023-04-14T05:09:08.835Z,99.90
2023-04-14T05:11:36.097Z,99.90
2023-04-14T05:14:03.411Z,99.90
2023-04-14T05:16:30.384Z,99.90
2023-04-14T05:18:57.461Z,99.90
2023-04-14T05:21:24.524Z,99.90
2023-04-14T05:23:51.409Z,99.90
2023-04-14T05:28:48.266Z,99.90
2023-04-14T05:31:15.294Z,99.90
2023-04-14T05:33:42.377Z,99.90
2023-04-14T05:36:09.368Z,99.90
2023-04-14T05:38:39.510Z,99.90
2023-04-14T05:41:06.746Z,99.90
2023-04-14T05:43:33.751Z,99.90
2023-04-14T05:46:00.798Z,99.90
2023-04-14T05:48:27.923Z,99.90
2023-04-14T05:50:57.830Z,99.90
2023-04-14T05:53:25.034Z,99.90
2023-04-14T05:55:52.473Z,99.90
2023-04-14T05:58:19.671Z,99.90
2023-04-14T06:00:46.727Z,99.90
2023-04-14T06:03:14.046Z,99.90
2023-04-14T06:05:41.113Z,99.90
2023-04-14T06:08:08.087Z,99.90
2023-04-14T06:10:35.365Z,99.90
2023-04-14T06:13:02.421Z,99.90
2023-04-14T06:15:29.335Z,99.90
2023-04-14T06:17:56.476Z,99.90
2023-04-14T06:20:23.540Z,99.90
2023-04-14T06:22:50.623Z,99.90
2023-04-14T06:25:17.696Z,99.90
2023-04-14T06:27:44.725Z,99.90
2023-04-14T06:30:12.014Z,99.90
2023-04-14T06:32:39.067Z,99.90
2023-04-14T06:35:06.711Z,99.90
2023-04-14T06:37:33.650Z,99.90
2023-04-14T06:40:00.653Z,99.90
2023-04-14T06:42:27.690Z,99.90
2023-04-14T06:44:54.625Z,99.90
2023-04-14T06:47:21.920Z,99.90
2023-04-14T06:49:49.004Z,99.90
2023-04-14T06:52:15.967Z,99.90
2023-04-14T06:54:42.941Z,99.90
2023-04-14T06:57:09.961Z,99.90
2023-04-14T06:59:37.757Z,99.90
2023-04-14T07:02:04.892Z,99.90
2023-04-14T07:04:31.914Z,99.90
2023-04-14T07:07:01.950Z,99.90
2023-04-14T07:09:28.927Z,99.90
2023-04-14T07:11:56.593Z,99.90
2023-04-14T07:14:24.402Z,99.90
2023-04-14T07:16:52.222Z,99.90
2023-04-14T07:19:19.565Z,99.90
2023-04-14T07:21:47.042Z,99.90
2023-04-14T07:24:15.499Z,99.90
2023-04-14T07:26:42.731Z,99.90
2023-04-14T07:29:09.698Z,99.90
2023-04-14T07:31:36.708Z,99.90
2023-04-14T07:34:03.932Z,99.90
2023-04-14T07:36:31.808Z,99.90
2023-04-14T07:38:59.031Z,99.90
2023-04-14T07:41:26.509Z,99.90
2023-04-14T07:43:53.589Z,99.90
2023-04-14T07:46:20.773Z,99.90
2023-04-14T07:48:47.760Z,99.60
2023-04-14T07:51:14.715Z,96.20
2023-04-14T07:53:42.671Z,94.30
2023-04-14T07:56:09.755Z,91.60
2023-04-14T07:58:36.784Z,88.60
2023-04-14T08:01:05.184Z,87.90
2023-04-14T08:03:32.241Z,86.80
2023-04-14T08:05:59.368Z,84.00
2023-04-14T08:08:26.309Z,84.70
2023-04-14T08:10:53.368Z,79.80
2023-04-14T08:13:20.360Z,80.30
2023-04-14T08:15:47.418Z,81.60
2023-04-14T08:18:14.507Z,81.70
2023-04-14T08:20:41.396Z,83.00
2023-04-14T08:23:08.364Z,85.70
2023-04-14T08:25:35.314Z,87.80
2023-04-14T08:28:02.207Z,89.30
2023-04-14T08:30:29.138Z,88.30
2023-04-14T08:32:59.040Z,84.50
2023-04-14T08:35:39.046Z,81.50
2023-04-14T08:38:08.529Z,81.10
2023-04-14T08:40:40.662Z,80.90
2023-04-14T08:43:07.633Z,80.50
2023-04-14T08:45:34.746Z,80.10
2023-04-14T08:48:03.692Z,80.10
2023-04-14T08:50:37.917Z,77.10
2023-04-14T08:53:08.367Z,76.20
2023-04-14T08:55:36.366Z,74.60
2023-04-14T08:58:03.297Z,74.00
2023-04-14T09:00:30.205Z,71.50
2023-04-14T09:02:57.260Z,73.50
2023-04-14T09:05:24.386Z,73.00
2023-04-14T09:07:51.989Z,69.40
2023-04-14T09:10:18.975Z,64.80
2023-04-14T09:12:45.873Z,65.60
2023-04-14T09:15:12.729Z,65.50
2023-04-14T09:17:39.649Z,59.80
2023-04-14T09:20:38.852Z,59.40
2023-04-14T09:22:54.458Z,61.20
2023-04-14T09:25:21.398Z,58.10
2023-04-14T09:27:50.811Z,58.30
2023-04-14T09:30:17.781Z,59.40
2023-04-14T09:32:45.175Z,58.50
2023-04-14T09:35:12.144Z,57.60
2023-04-14T09:37:43.491Z,58.70
2023-04-14T09:40:11.417Z,55.80
2023-04-14T09:42:41.704Z,58.40
2023-04-14T09:45:09.432Z,55.50
2023-04-14T09:47:36.439Z,56.10
2023-04-14T09:50:04.101Z,56.70
2023-04-14T09:52:47.934Z,56.90
2023-04-14T09:55:16.282Z,56.40
2023-04-14T09:57:44.357Z,56.30
2023-04-14T10:00:20.459Z,56.10
2023-04-14T10:02:52.929Z,55.10
2023-04-14T10:05:20.083Z,57.30
2023-04-14T10:07:47.352Z,54.80
2023-04-14T10:10:14.504Z,57.30
2023-04-14T10:12:46.535Z,55.20
2023-04-14T10:15:13.572Z,56.30
2023-04-14T10:17:40.516Z,57.00
2023-04-14T10:20:08.298Z,57.00
2023-04-14T10:22:35.439Z,55.90
2023-04-14T10:25:02.374Z,57.50
2023-04-14T10:27:31.002Z,56.60
2023-04-14T10:29:58.714Z,56.10
2023-04-14T10:32:27.669Z,56.60
2023-04-14T10:35:00.912Z,56.10
2023-04-14T10:37:28.008Z,56.00
2023-04-14T10:39:59.077Z,57.40
2023-04-14T10:42:26.065Z,57.70
2023-04-14T10:45:07.277Z,56.10
2023-04-14T10:47:34.696Z,56.40
2023-04-14T10:50:14.053Z,56.70
2023-04-14T10:52:54.808Z,58.40
2023-04-14T10:55:26.124Z,56.90
2023-04-14T10:57:53.070Z,56.80
2023-04-14T11:00:23.403Z,58.20
2023-04-14T11:03:16.133Z,57.80
2023-04-14T11:05:52.383Z,58.20
2023-04-14T11:08:26.109Z,57.30
2023-04-14T11:11:04.681Z,57.00
2023-04-14T11:13:33.045Z,57.30
2023-04-14T11:16:07.383Z,57.70
2023-04-14T11:18:39.276Z,57.00
2023-04-14T11:21:11.245Z,56.90
2023-04-14T11:23:38.187Z,57.80
2023-04-14T11:26:06.080Z,56.80
2023-04-14T11:28:35.032Z,57.00
2023-04-14T11:31:04.663Z,57.00
2023-04-14T11:33:33.432Z,57.50
2023-04-14T11:36:01.579Z,56.90
2023-04-14T11:38:28.746Z,56.90
2023-04-14T11:40:55.846Z,55.00
2023-04-14T11:43:23.785Z,55.90
2023-04-14T11:45:51.521Z,54.50
2023-04-14T11:48:20.344Z,54.80
2023-04-14T11:50:48.090Z,54.50
2023-04-14T11:53:16.899Z,54.10
2023-04-14T11:55:50.265Z,51.30
2023-04-14T11:58:25.187Z,51.50
2023-04-14T12:00:55.108Z,50.40
2023-04-14T12:03:29.669Z,51.00
2023-04-14T12:06:00.821Z,51.20
2023-04-14T12:08:30.457Z,51.30
2023-04-14T12:10:57.441Z,51.20
2023-04-14T12:13:24.507Z,52.80
2023-04-14T12:15:51.785Z,53.30
2023-04-14T12:20:47.613Z,53.10
2023-04-14T12:23:27.020Z,53.10
2023-04-14T12:25:54.080Z,52.80
2023-04-14T12:28:27.852Z,54.80
2023-04-14T12:30:57.651Z,54.70
2023-04-14T12:33:59.401Z,54.70
2023-04-14T12:36:16.521Z,53.80
2023-04-14T12:38:44.409Z,54.10
2023-04-14T12:41:11.277Z,52.10
2023-04-14T12:43:38.949Z,51.80
2023-04-14T12:46:06.247Z,52.60
2023-04-14T12:48:43.755Z,54.10
2023-04-14T12:51:12.838Z,53.70
2023-04-14T12:53:40.024Z,53.30
2023-04-14T12:56:14.067Z,52.00
2023-04-14T12:58:42.600Z,51.50
2023-04-14T13:01:11.002Z,52.00
2023-04-14T13:03:49.019Z,52.70
2023-04-14T13:06:17.400Z,52.60
2023-04-14T13:08:51.765Z,53.40
2023-04-14T13:11:20.211Z,52.50
2023-04-14T13:13:47.172Z,52.30
2023-04-14T13:16:17.096Z,50.80
2023-04-14T13:18:45.461Z,51.90
2023-04-14T13:21:12.690Z,53.00
2023-04-14T13:23:39.831Z,57.20
2023-04-14T13:26:06.728Z,53.20
2023-04-14T13:28:33.730Z,53.70
2023-04-14T13:31:00.617Z,53.00
2023-04-14T13:33:27.521Z,52.10
2023-04-14T13:35:54.447Z,51.00
2023-04-14T13:38:21.364Z,51.50
2023-04-14T13:40:48.532Z,50.70
2023-04-14T13:43:17.155Z,50.40
2023-04-14T13:45:44.164Z,50.20
2023-04-14T13:48:11.181Z,51.20
2023-04-14T13:50:38.100Z,50.00
2023-04-14T13:53:04.998Z,50.50
2023-04-14T13:55:31.910Z,50.80
2023-04-14T13:57:58.814Z,51.00
2023-04-14T14:00:25.824Z,50.40
2023-04-14T14:02:52.844Z,51.80
2023-04-14T14:05:19.850Z,52.70
2023-04-14T14:07:47.183Z,51.10
2023-04-14T14:10:14.122Z,51.40
2023-04-14T14:12:41.054Z,51.60
2023-04-14T14:15:08.836Z,52.20
2023-04-14T14:17:35.749Z,50.50
2023-04-14T14:20:02.753Z,51.90
2023-04-14T14:22:29.675Z,52.10
2023-04-14T14:25:06.891Z,51.60
2023-04-14T14:27:42.489Z,51.50
2023-04-14T14:30:09.938Z,50.40
2023-04-14T14:32:36.951Z,50.20
2023-04-14T14:35:04.632Z,51.40
2023-04-14T14:37:31.545Z,51.60
2023-04-14T14:39:58.464Z,52.50
2023-04-14T14:42:25.420Z,51.40
2023-04-14T14:44:52.301Z,51.80
2023-04-14T14:47:19.294Z,52.30
2023-04-14T14:49:56.716Z,51.90
2023-04-14T14:52:34.432Z,52.00
2023-04-14T14:55:02.112Z,51.50
2023-04-14T14:58:49.786Z,51.40
2023-04-14T15:01:14.864Z,52.50
2023-04-14T15:03:42.447Z,52.30
2023-04-14T15:06:09.675Z,52.10
2023-04-14T15:08:36.584Z,51.70
2023-04-14T15:11:03.559Z,51.30
2023-04-14T15:13:30.429Z,52.30
2023-04-14T15:15:57.354Z,53.30
2023-04-14T15:18:24.260Z,54.50
2023-04-14T15:20:53.783Z,53.80
2023-04-14T15:23:20.709Z,53.30
2023-04-14T15:25:47.586Z,53.20
2023-04-14T15:28:14.451Z,53.40
2023-04-14T15:30:41.438Z,52.40
2023-04-14T15:33:08.323Z,52.70
2023-04-14T15:35:39.380Z,53.80
2023-04-14T15:38:07.119Z,53.20
2023-04-14T15:40:34.032Z,52.80
2023-04-14T15:43:01.173Z,51.80
2023-04-14T15:45:28.088Z,52.90
2023-04-14T15:47:55.231Z,53.60
2023-04-14T15:50:22.181Z,54.50
2023-04-14T15:52:49.054Z,54.40
2023-04-14T15:55:15.947Z,54.70
2023-04-14T15:57:42.816Z,54.00
2023-04-14T16:00:11.114Z,54.30
2023-04-14T16:02:38.737Z,54.40
2023-04-14T16:05:06.458Z,55.00
2023-04-14T16:07:33.491Z,54.20
2023-04-14T16:10:01.142Z,54.90
2023-04-14T16:12:28.135Z,56.10
2023-04-14T16:14:55.086Z,57.60
2023-04-14T16:17:22.023Z,55.50
2023-04-14T16:19:48.981Z,55.20
2023-04-14T16:22:15.925Z,55.60
2023-04-14T16:24:42.934Z,57.80
2023-04-14T16:27:09.840Z,56.20
2023-04-14T16:29:36.733Z,56.90
2023-04-14T16:32:03.654Z,55.60
2023-04-14T16:34:30.687Z,55.80
2023-04-14T16:36:58.008Z,55.00
2023-04-14T16:39:24.963Z,54.90
2023-04-14T16:41:51.975Z,55.00
2023-04-14T16:44:19.052Z,55.10
2023-04-14T16:46:46.029Z,55.00
2023-04-14T16:49:13.630Z,54.10
2023-04-14T16:51:40.687Z,54.30
2023-04-14T16:54:07.894Z,55.50
2023-04-14T16:56:36.719Z,56.30
2023-04-14T16:59:05.025Z,55.80
2023-04-14T17:01:32.850Z,57.00
2023-04-14T17:04:00.420Z,57.00
2023-04-14T17:06:28.020Z,57.10
2023-04-14T17:08:55.044Z,57.80
2023-04-14T17:11:22.486Z,57.60
2023-04-14T17:13:49.464Z,57.00
2023-04-14T17:16:16.823Z,57.10
2023-04-14T17:18:43.815Z,57.20
2023-04-14T17:21:10.711Z,57.30
2023-04-14T17:23:38.105Z,57.70
2023-04-14T17:26:05.469Z,57.70
2023-04-14T17:28:32.499Z,57.60
2023-04-14T17:30:59.533Z,57.50
2023-04-14T17:33:26.480Z,57.60
2023-04-14T17:35:56.502Z,58.00
2023-04-14T17:38:23.645Z,57.80
2023-04-14T17:40:50.607Z,58.00
2023-04-14T17:43:17.551Z,58.10
2023-04-14T17:45:44.504Z,57.90
2023-04-14T17:48:11.424Z,57.70
2023-04-14T17:50:38.371Z,58.00
2023-04-14T17:53:05.327Z,57.80
2023-04-14T17:55:32.368Z,58.10
2023-04-14T17:57:59.333Z,58.30
2023-04-14T18:00:26.970Z,58.50
2023-04-14T18:02:54.017Z,58.40
2023-04-14T18:05:21.214Z,58.60
2023-04-14T18:07:48.139Z,60.30
2023-04-14T18:10:15.041Z,60.80
2023-04-14T18:12:41.972Z,61.20
2023-04-14T18:15:10.903Z,62.60
2023-04-14T18:17:38.062Z,64.80
2023-04-14T18:20:05.755Z,62.80
2023-04-14T18:22:32.846Z,62.70
2023-04-14T18:24:59.807Z,64.00
2023-04-14T18:29:56.774Z,63.70
2023-04-14T18:32:23.684Z,64.50
2023-04-14T18:34:51.096Z,65.50
2023-04-14T18:37:18.090Z,65.40
2023-04-14T18:39:45.042Z,66.40
2023-04-14T18:42:11.955Z,67.20
2023-04-14T18:44:38.896Z,68.20
2023-04-14T18:47:05.851Z,68.90
2023-04-14T18:49:32.891Z,69.20
2023-04-14T18:51:59.867Z,69.50
2023-04-14T18:54:26.792Z,69.70
2023-04-14T18:56:53.721Z,69.90
2023-04-14T18:59:21.431Z,70.20
2023-04-14T19:01:48.479Z,70.30
2023-04-14T19:04:15.679Z,70.20
2023-04-14T19:06:42.709Z,70.20
2023-04-14T19:09:09.863Z,70.70
2023-04-14T19:11:36.853Z,71.00
2023-04-14T19:14:04.746Z,71.20
2023-04-14T19:16:35.338Z,72.80
2023-04-14T19:19:02.554Z,73.30
2023-04-14T19:21:30.759Z,75.50
2023-04-14T19:23:57.701Z,76.30
2023-04-14T19:26:24.694Z,77.20
2023-04-14T19:28:58.970Z,77.80
2023-04-14T19:31:26.148Z,79.60
2023-04-14T19:33:53.205Z,80.10
2023-04-14T19:36:20.103Z,81.10
2023-04-14T19:38:47.119Z,82.00
2023-04-14T19:41:14.137Z,82.10
2023-04-14T19:43:41.605Z,83.00
2023-04-14T19:46:08.727Z,82.50
2023-04-14T19:48:35.906Z,83.10
2023-04-14T19:51:03.008Z,83.90
2023-04-14T19:53:30.061Z,84.10
2023-04-14T19:55:57.992Z,85.70
2023-04-14T19:58:26.050Z,87.10
2023-04-14T20:00:54.741Z,86.70
2023-04-14T20:03:21.899Z,86.60
2023-04-14T20:05:56.840Z,87.80
2023-04-14T20:08:24.491Z,88.00
2023-04-14T20:10:54.991Z,89.30
2023-04-14T20:13:25.840Z,90.20
2023-04-14T20:15:52.783Z,90.40
2023-04-14T20:18:19.770Z,90.80
2023-04-14T20:20:46.823Z,90.90
2023-04-14T20:23:13.807Z,91.10
2023-04-14T20:25:40.753Z,91.20
2023-04-14T20:28:07.739Z,91.80
2023-04-14T20:30:34.739Z,92.20
2023-04-14T20:33:03.349Z,92.10
2023-04-14T20:35:30.922Z,92.40
2023-04-14T20:37:57.957Z,92.60
2023-04-14T20:40:24.856Z,92.40
2023-04-14T20:42:51.900Z,92.20
2023-04-14T20:45:18.896Z,92.70
2023-04-14T20:47:46.133Z,92.90
2023-04-14T20:50:13.096Z,92.80
2023-04-14T20:52:40.092Z,92.80
2023-04-14T20:55:07.698Z,92.10
2023-04-14T20:57:34.787Z,91.70
2023-04-14T21:00:01.746Z,91.00
2023-04-14T21:02:28.907Z,90.10
2023-04-14T21:04:55.928Z,89.60
2023-04-14T21:07:22.938Z,89.80
2023-04-14T21:09:49.956Z,90.00
2023-04-14T21:12:16.967Z,91.00
2023-04-14T21:15:31.037Z,91.30
2023-04-14T21:17:31.573Z,92.00
2023-04-14T21:19:58.582Z,91.50
2023-04-14T21:22:25.613Z,92.20
2023-04-14T21:24:52.544Z,92.50
2023-04-14T21:27:19.538Z,92.90
2023-04-14T21:29:46.484Z,93.40
2023-04-14T21:32:13.469Z,93.20
2023-04-14T21:34:40.791Z,94.30
2023-04-14T21:37:07.799Z,94.70
2023-04-14T21:39:34.794Z,95.20
2023-04-14T21:42:01.843Z,95.70
2023-04-14T21:44:28.805Z,96.20
2023-04-14T21:46:55.918Z,96.50
2023-04-14T21:49:22.964Z,95.90
2023-04-14T21:51:52.978Z,96.40
2023-04-14T21:54:19.958Z,96.50
2023-04-14T21:56:46.890Z,97.00
2023-04-14T21:59:13.825Z,97.10
2023-04-14T22:01:40.930Z,97.30
2023-04-14T22:04:08.006Z,97.10
2023-04-14T22:06:35.187Z,97.30
2023-04-14T22:09:02.520Z,97.30
2023-04-14T22:11:29.750Z,97.40
2023-04-14T22:13:57.054Z,97.30
2023-04-14T22:16:24.397Z,97.40
2023-04-14T22:18:52.067Z,97.90
2023-04-14T22:21:19.495Z,98.60
2023-04-14T22:23:46.786Z,99.10
2023-04-14T22:26:14.010Z,99.20
2023-04-14T22:28:41.655Z,99.20
2023-04-14T22:31:08.651Z,99.60
2023-04-14T22:33:35.952Z,99.80
2023-04-14T22:36:03.764Z,99.90
2023-04-14T22:38:31.317Z,99.90
2023-04-14T22:40:58.338Z,99.90
2023-04-14T22:43:25.652Z,99.90
2023-04-14T22:45:52.721Z,99.90
2023-04-14T22:48:19.752Z,99.90
2023-04-14T22:50:46.916Z,99.90
2023-04-14T22:53:13.858Z,99.90
2023-04-14T22:55:42.004Z,99.90
2023-04-14T22:58:09.047Z,99.90
2023-04-14T23:00:36.594Z,99.90
2023-04-14T23:03:03.781Z,99.90
2023-04-14T23:05:31.514Z,99.90
2023-04-14T23:07:58.895Z,99.90
2023-04-14T23:10:26.065Z,99.90
2023-04-14T23:12:53.792Z,99.90
2023-04-14T23:15:21.495Z,99.90
2023-04-14T23:17:49.071Z,99.90
2023-04-14T23:20:16.580Z,99.90
2023-04-14T23:22:43.978Z,99.90
2023-04-14T23:25:11.531Z,99.90
2023-04-14T23:27:39.275Z,99.90
2023-04-14T23:30:07.233Z,99.90
2023-04-14T23:32:34.589Z,99.90
2023-04-14T23:35:01.948Z,99.90
2023-04-14T23:37:29.654Z,99.90
2023-04-14T23:39:57.145Z,99.90
2023-04-14T23:42:24.166Z,99.90
2023-04-14T23:44:51.800Z,99.90
2023-04-14T23:47:19.228Z,99.90
2023-04-14T23:49:46.953Z,99.90
2023-04-14T23:52:14.635Z,99.90
2023-04-14T23:54:41.684Z,99.90
2023-04-14T23:57:09.333Z,99.90
2023-04-14T23:59:36.637Z,99.90
